createdAt,value
2022-10-30T00:00:42.981Z,76049.63
2022-10-30T00:03:11.938Z,76049.63
2022-10-30T00:05:43.132Z,76061.94
2022-10-30T00:08:11.156Z,76049.63
2022-10-30T00:10:38.899Z,76037.28
2022-10-30T00:13:08.362Z,76037.28
2022-10-30T00:15:38.092Z,76029.06
2022-10-30T00:18:05.272Z,76029.06
2022-10-30T00:20:32.434Z,76024.94
2022-10-30T00:23:03.713Z,76016.72
2022-10-30T00:25:30.764Z,76010.56
2022-10-30T00:27:58.068Z,76012.63
2022-10-30T00:30:25.193Z,76004.41
2022-10-30T00:32:52.280Z,76004.41
2022-10-30T00:35:20.001Z,76008.50
2022-10-30T00:37:47.122Z,76000.28
2022-10-30T00:40:18.492Z,76004.41
2022-10-30T00:42:45.577Z,76000.28
2022-10-30T00:45:13.320Z,76000.28
2022-10-30T00:47:42.263Z,75985.91
2022-10-30T00:50:09.284Z,75990.00
2022-10-30T00:52:41.204Z,75975.63
2022-10-30T00:55:10.300Z,75977.69
2022-10-30T00:57:37.469Z,75971.50
2022-10-30T01:00:04.912Z,75967.41
2022-10-30T01:02:32.292Z,75959.19
2022-10-30T01:04:59.432Z,75955.06
2022-10-30T01:07:26.847Z,75955.06
2022-10-30T01:09:53.955Z,75955.06
2022-10-30T01:12:21.027Z,75946.84
2022-10-30T01:14:50.964Z,75946.84
2022-10-30T01:17:22.265Z,75938.63
2022-10-30T01:20:16.833Z,75946.84
2022-10-30T01:22:52.924Z,75938.63
2022-10-30T01:25:34.647Z,75950.97
2022-10-30T01:28:04.872Z,75948.91
2022-10-30T01:30:50.458Z,75944.78
2022-10-30T01:33:26.703Z,75944.78
2022-10-30T01:35:56.961Z,75936.56
2022-10-30T01:38:26.131Z,75934.53
2022-10-30T01:40:53.267Z,75942.75
2022-10-30T01:43:20.379Z,75932.47
2022-10-30T01:45:59.689Z,75926.28
2022-10-30T01:48:29.943Z,75934.53
2022-10-30T01:50:57.309Z,75934.53
2022-10-30T01:53:27.181Z,75934.53
2022-10-30T01:55:57.033Z,75930.41
2022-10-30T01:58:29.924Z,75918.06
2022-10-30T02:00:57.517Z,75913.97
2022-10-30T02:03:25.624Z,75913.97
2022-10-30T02:05:52.968Z,75905.75
2022-10-30T02:08:20.320Z,75897.53
2022-10-30T02:10:47.997Z,75893.41
2022-10-30T02:13:15.215Z,75891.34
2022-10-30T02:15:43.209Z,75897.53
2022-10-30T02:18:10.557Z,75901.63
2022-10-30T02:20:38.239Z,75897.53
2022-10-30T02:23:06.919Z,75895.47
2022-10-30T02:25:36.164Z,75905.75
2022-10-30T02:28:03.319Z,75909.84
2022-10-30T02:30:30.469Z,75918.06
2022-10-30T02:32:58.080Z,75913.97
2022-10-30T02:35:25.380Z,75907.81
2022-10-30T02:37:52.567Z,75913.97
2022-10-30T02:40:19.610Z,75905.75
2022-10-30T02:42:54.500Z,75899.56
2022-10-30T02:45:21.728Z,75903.69
2022-10-30T02:47:50.576Z,75911.91
2022-10-30T02:50:17.818Z,75909.84
2022-10-30T02:52:45.762Z,75905.75
2022-10-30T02:55:12.837Z,75899.56
2022-10-30T02:57:40.009Z,75893.41
2022-10-30T03:00:07.415Z,75889.31
2022-10-30T03:02:37.960Z,75889.31
2022-10-30T03:05:05.133Z,75885.19
2022-10-30T03:07:33.842Z,75876.97
2022-10-30T03:10:01.203Z,75881.09
2022-10-30T03:12:28.295Z,75872.84
2022-10-30T03:14:55.395Z,75872.84
2022-10-30T03:17:22.425Z,75864.63
2022-10-30T03:19:51.586Z,75864.63
2022-10-30T03:22:18.873Z,75868.75
2022-10-30T03:24:45.941Z,75856.41
2022-10-30T03:27:13.237Z,75856.41
2022-10-30T03:29:40.622Z,75860.53
2022-10-30T03:32:10.995Z,75870.81
2022-10-30T03:34:38.211Z,75864.63
2022-10-30T03:37:06.142Z,75881.09
2022-10-30T03:39:33.348Z,75881.09
2022-10-30T03:42:03.071Z,75872.84
2022-10-30T03:44:30.411Z,75872.84
2022-10-30T03:46:58.360Z,75872.84
2022-10-30T03:49:25.478Z,75889.31
2022-10-30T03:51:52.632Z,75870.81
2022-10-30T03:54:19.734Z,75864.63
2022-10-30T03:56:47.132Z,75864.63
2022-10-30T03:59:14.239Z,75870.81
2022-10-30T04:01:41.802Z,75860.53
2022-10-30T04:04:09.027Z,75876.97
2022-10-30T04:06:36.284Z,75860.53
2022-10-30T04:09:04.841Z,75860.53
2022-10-30T04:11:33.646Z,75864.63
2022-10-30T04:14:01.207Z,75856.41
2022-10-30T04:16:28.232Z,75856.41
2022-10-30T04:18:55.258Z,75856.41
2022-10-30T04:21:22.350Z,75860.53
2022-10-30T04:23:49.390Z,75856.41
2022-10-30T04:26:16.458Z,75858.47
2022-10-30T04:28:43.487Z,75852.31
2022-10-30T04:31:10.730Z,75852.31
2022-10-30T04:33:37.947Z,75850.25
2022-10-30T04:36:05.976Z,75846.13
2022-10-30T04:38:33.177Z,75844.09
2022-10-30T04:41:00.664Z,75852.31
2022-10-30T04:43:28.024Z,75856.41
2022-10-30T04:45:55.068Z,75848.19
2022-10-30T04:48:22.298Z,75848.19
2022-10-30T04:50:49.821Z,75850.25
2022-10-30T04:53:17.683Z,75854.38
2022-10-30T04:55:46.563Z,75860.53
2022-10-30T04:58:14.042Z,75850.25
2022-10-30T05:00:41.913Z,75848.19
2022-10-30T05:03:09.468Z,75852.31
2022-10-30T05:05:37.355Z,75844.09
2022-10-30T05:08:04.497Z,75844.09
2022-10-30T05:10:31.573Z,75842.03
2022-10-30T05:13:00.222Z,75839.97
2022-10-30T05:15:27.295Z,75837.91
2022-10-30T05:17:54.622Z,75839.97
2022-10-30T05:20:21.698Z,75815.31
2022-10-30T05:22:56.493Z,75815.31
2022-10-30T05:25:23.948Z,75811.22
2022-10-30T05:27:51.035Z,75802.97
2022-10-30T05:30:18.087Z,75815.31
2022-10-30T05:32:45.121Z,75802.97
2022-10-30T05:35:12.326Z,75802.97
2022-10-30T05:37:39.426Z,75811.22
2022-10-30T05:40:06.887Z,75819.44
2022-10-30T05:42:34.035Z,75835.88
2022-10-30T05:45:02.431Z,75848.19
2022-10-30T05:47:30.191Z,75839.97
2022-10-30T05:49:57.223Z,75835.88
2022-10-30T05:52:24.289Z,75842.03
2022-10-30T05:54:51.310Z,75823.53
2022-10-30T05:57:18.533Z,75788.59
2022-10-30T05:59:46.033Z,75786.53
2022-10-30T06:02:13.246Z,75807.09
2022-10-30T06:04:40.644Z,75844.09
2022-10-30T06:07:07.748Z,75839.97
2022-10-30T06:09:34.840Z,75844.09
2022-10-30T06:12:02.755Z,75842.03
2022-10-30T06:14:33.140Z,75831.75
2022-10-30T06:17:00.612Z,75844.09
2022-10-30T06:19:27.636Z,75860.53
2022-10-30T06:21:54.928Z,75852.31
2022-10-30T06:24:22.613Z,75844.09
2022-10-30T06:26:51.100Z,75852.31
2022-10-30T06:29:18.156Z,75850.25
2022-10-30T06:31:45.600Z,75862.59
2022-10-30T06:34:12.674Z,75854.38
2022-10-30T06:36:40.991Z,75852.31
2022-10-30T06:39:08.111Z,75852.31
2022-10-30T06:41:35.614Z,75848.19
2022-10-30T06:44:03.034Z,75835.88
2022-10-30T06:46:33.581Z,75821.47
2022-10-30T06:49:01.153Z,75815.31
2022-10-30T06:51:28.530Z,75817.38
2022-10-30T06:53:55.651Z,75811.22
2022-10-30T06:56:23.125Z,75802.97
2022-10-30T06:58:50.171Z,75815.31
2022-10-30T07:01:17.870Z,75807.09
2022-10-30T07:03:44.951Z,75811.22
2022-10-30T07:06:12.117Z,75807.09
2022-10-30T07:08:39.157Z,75802.97
2022-10-30T07:11:06.198Z,75798.88
2022-10-30T07:13:33.252Z,75798.88
2022-10-30T07:16:01.293Z,75786.53
2022-10-30T07:18:28.484Z,75778.31
2022-10-30T07:20:58.429Z,75788.59
2022-10-30T07:23:25.717Z,75770.09
2022-10-30T07:25:52.775Z,75757.78
2022-10-30T07:28:20.030Z,75745.44
2022-10-30T07:30:47.732Z,75739.28
2022-10-30T07:33:15.148Z,75714.59
2022-10-30T07:35:42.175Z,75683.78
2022-10-30T07:38:10.372Z,75556.38
2022-10-30T07:40:37.416Z,75535.81
2022-10-30T07:43:04.581Z,75585.13
2022-10-30T07:45:31.670Z,75620.06
2022-10-30T07:47:59.189Z,75644.75
2022-10-30T07:50:26.476Z,75650.91
2022-10-30T07:52:54.084Z,75634.47
2022-10-30T07:55:21.322Z,75659.13
2022-10-30T07:57:48.499Z,75657.06
2022-10-30T08:00:16.100Z,75634.47
2022-10-30T08:02:44.156Z,75601.56
2022-10-30T08:05:12.945Z,75593.34
2022-10-30T08:07:40.682Z,75618.03
2022-10-30T08:10:10.685Z,75548.16
2022-10-30T08:12:40.597Z,75416.63
2022-10-30T08:15:08.003Z,75338.53
2022-10-30T08:17:55.033Z,75424.84
2022-10-30T08:20:23.666Z,75476.22
2022-10-30T08:22:54.815Z,75484.44
2022-10-30T08:25:22.912Z,75490.59
2022-10-30T08:28:03.077Z,75511.16
2022-10-30T08:30:31.685Z,75523.50
2022-10-30T08:32:59.448Z,75531.72
2022-10-30T08:35:27.060Z,75507.03
2022-10-30T08:37:57.917Z,75482.38
2022-10-30T08:40:25.685Z,75439.22
2022-10-30T08:42:56.631Z,75441.28
2022-10-30T08:45:29.737Z,75486.50
2022-10-30T08:48:03.354Z,75478.28
2022-10-30T08:50:31.208Z,75480.34
2022-10-30T08:53:03.170Z,75511.16
2022-10-30T08:55:33.813Z,75511.16
2022-10-30T08:58:01.008Z,75509.09
2022-10-30T09:00:28.634Z,75490.59
2022-10-30T09:02:56.146Z,75433.06
2022-10-30T09:05:25.875Z,75478.28
2022-10-30T09:07:58.679Z,75318.00
2022-10-30T09:10:26.787Z,75108.41
2022-10-30T09:12:54.407Z,74915.25
2022-10-30T09:15:21.583Z,74944.00
2022-10-30T09:17:48.685Z,74999.50
2022-10-30T09:20:15.769Z,74894.69
2022-10-30T09:22:43.368Z,74935.78
2022-10-30T09:25:10.497Z,74911.13
2022-10-30T09:27:38.397Z,75048.81
2022-10-30T09:30:05.890Z,75075.53
2022-10-30T09:32:33.333Z,75186.47
2022-10-30T09:35:00.463Z,75165.94
2022-10-30T09:37:27.591Z,75137.16
2022-10-30T09:39:54.719Z,75215.25
2022-10-30T09:42:21.770Z,75071.41
2022-10-30T09:45:08.382Z,75013.88
2022-10-30T09:47:49.364Z,75083.75
2022-10-30T09:50:25.937Z,75131.00
2022-10-30T09:53:11.836Z,75190.59
2022-10-30T09:55:41.689Z,75190.59
2022-10-30T09:58:09.129Z,75231.69
2022-10-30T10:00:40.248Z,75254.28
2022-10-30T10:03:07.461Z,75278.94
2022-10-30T10:05:37.003Z,75219.34
2022-10-30T10:08:04.644Z,75202.91
2022-10-30T10:10:39.139Z,75133.06
2022-10-30T10:13:06.633Z,74902.91
2022-10-30T10:15:46.022Z,74755.00
2022-10-30T10:18:17.744Z,74820.75
2022-10-30T10:20:45.389Z,74633.78
2022-10-30T10:23:26.655Z,74748.81
2022-10-30T10:25:54.503Z,74923.47
2022-10-30T10:28:40.282Z,75124.84
2022-10-30T10:31:13.770Z,75120.72
2022-10-30T10:33:40.965Z,75128.94
2022-10-30T10:36:08.124Z,74970.72
2022-10-30T10:38:53.516Z,74750.88
2022-10-30T10:41:29.956Z,74699.50
2022-10-30T10:44:01.469Z,74553.66
2022-10-30T10:46:38.221Z,74483.78
2022-10-30T10:49:05.483Z,74475.56
2022-10-30T10:51:34.106Z,74598.84
2022-10-30T10:54:02.455Z,74529.00
2022-10-30T10:56:39.814Z,74613.22
2022-10-30T10:59:12.963Z,74666.66
2022-10-30T11:01:40.661Z,74656.38
2022-10-30T11:04:24.524Z,74681.03
2022-10-30T11:06:52.084Z,74668.69
2022-10-30T11:09:20.160Z,74726.22
2022-10-30T11:11:51.340Z,74738.56
2022-10-30T11:14:25.299Z,74734.44
2022-10-30T11:17:04.032Z,74865.94
2022-10-30T11:19:31.199Z,74845.38
2022-10-30T11:21:59.440Z,74822.78
2022-10-30T11:24:26.848Z,74861.81
2022-10-30T11:26:55.248Z,74861.81
2022-10-30T11:29:29.813Z,74785.81
2022-10-30T11:32:03.383Z,74808.41
2022-10-30T11:34:37.198Z,74839.22
2022-10-30T11:37:04.670Z,74833.06
2022-10-30T11:39:34.985Z,74939.91
2022-10-30T11:42:11.876Z,75017.97
2022-10-30T11:44:56.912Z,75087.84
2022-10-30T11:47:30.053Z,75192.63
2022-10-30T11:49:57.993Z,75182.38
2022-10-30T11:52:25.663Z,75182.38
2022-10-30T11:55:02.728Z,75188.53
2022-10-30T11:57:30.373Z,75209.09
2022-10-30T12:00:03.735Z,75239.91
2022-10-30T12:02:40.017Z,75291.28
2022-10-30T12:05:27.701Z,75332.38
2022-10-30T12:07:55.145Z,75330.31
2022-10-30T12:10:26.350Z,75303.59
2022-10-30T12:12:53.779Z,75359.09
2022-10-30T12:15:21.732Z,75404.28
2022-10-30T12:17:58.441Z,75418.69
2022-10-30T12:20:29.627Z,75383.75
2022-10-30T12:22:58.310Z,75363.19
2022-10-30T12:25:25.673Z,75369.38
2022-10-30T12:28:00.861Z,75383.75
2022-10-30T12:30:28.536Z,75437.19
2022-10-30T12:33:04.121Z,75453.63
2022-10-30T12:35:34.744Z,75478.28
2022-10-30T12:38:02.177Z,75478.28
2022-10-30T12:40:30.543Z,75463.88
2022-10-30T12:43:00.622Z,75478.28
2022-10-30T12:45:29.447Z,75498.81
2022-10-30T12:48:02.039Z,75500.88
2022-10-30T12:50:48.357Z,75494.72
2022-10-30T12:53:26.921Z,75507.03
2022-10-30T12:56:06.571Z,75511.16
2022-10-30T12:58:37.686Z,75498.81
2022-10-30T13:01:24.432Z,75511.16
2022-10-30T13:03:54.106Z,75525.53
2022-10-30T13:06:22.645Z,75535.81
2022-10-30T13:08:51.026Z,75527.59
2022-10-30T13:11:18.485Z,75556.38
2022-10-30T13:13:48.397Z,75556.38
2022-10-30T13:16:20.731Z,75564.59
2022-10-30T13:18:48.316Z,75564.59
2022-10-30T13:21:30.787Z,75552.25
2022-10-30T13:24:05.435Z,75560.47
2022-10-30T13:26:39.453Z,75576.91
2022-10-30T13:29:12.740Z,75593.34
2022-10-30T13:31:43.408Z,75611.84
2022-10-30T13:34:25.014Z,75626.25
2022-10-30T13:37:04.041Z,75622.13
2022-10-30T13:39:31.789Z,75646.78
2022-10-30T13:42:05.067Z,75642.69
2022-10-30T13:44:45.377Z,75652.97
2022-10-30T13:47:25.200Z,75661.19
2022-10-30T13:50:01.956Z,75667.34
2022-10-30T13:52:29.787Z,75675.56
2022-10-30T13:54:56.835Z,75673.50
2022-10-30T13:57:26.995Z,75667.34
2022-10-30T13:59:57.027Z,75671.44
2022-10-30T14:02:43.158Z,75692.00
2022-10-30T14:05:14.095Z,75679.69
2022-10-30T14:07:46.694Z,75681.72
2022-10-30T14:10:17.230Z,75683.78
2022-10-30T14:12:46.153Z,75675.56
2022-10-30T14:15:25.408Z,75675.56
2022-10-30T14:18:11.392Z,75689.94
2022-10-30T14:20:46.433Z,75692.00
2022-10-30T14:23:19.785Z,75687.91
2022-10-30T14:26:01.915Z,75700.22
2022-10-30T14:28:29.853Z,75700.22
2022-10-30T14:31:03.472Z,75708.44
2022-10-30T14:33:34.539Z,75708.44
2022-10-30T14:36:21.102Z,75720.78
2022-10-30T14:38:52.051Z,75729.00
2022-10-30T14:41:28.228Z,75729.00
2022-10-30T14:44:07.453Z,75733.09
2022-10-30T14:46:37.461Z,75724.88
2022-10-30T14:49:09.909Z,75724.88
2022-10-30T14:51:41.461Z,75726.94
2022-10-30T14:54:08.492Z,75724.88
2022-10-30T14:56:41.241Z,75726.94
2022-10-30T14:59:09.145Z,75739.28
2022-10-30T15:01:44.943Z,75733.09
2022-10-30T15:04:18.293Z,75716.66
2022-10-30T15:06:48.276Z,75729.00
2022-10-30T15:09:27.655Z,75737.22
2022-10-30T15:11:58.052Z,75729.00
2022-10-30T15:14:40.678Z,75724.88
2022-10-30T15:17:27.424Z,75735.16
2022-10-30T15:19:54.605Z,75741.31
2022-10-30T15:22:22.051Z,75763.94
2022-10-30T15:24:50.230Z,75766.00
2022-10-30T15:27:18.514Z,75759.81
2022-10-30T15:29:59.582Z,75761.88
2022-10-30T15:32:27.082Z,75759.81
2022-10-30T15:34:55.544Z,75770.09
2022-10-30T15:37:22.795Z,75755.72
2022-10-30T15:39:49.818Z,75747.50
2022-10-30T15:42:16.895Z,75761.88
2022-10-30T15:44:44.469Z,75766.00
2022-10-30T15:47:16.569Z,75778.31
2022-10-30T15:49:48.423Z,75774.22
2022-10-30T15:52:16.101Z,75774.22
2022-10-30T15:54:43.989Z,75772.16
2022-10-30T15:57:56.982Z,75784.50
2022-10-30T16:00:00.495Z,75794.75
2022-10-30T16:02:27.812Z,75798.88
2022-10-30T16:04:55.263Z,75809.16
2022-10-30T16:07:24.501Z,75809.16
2022-10-30T16:10:06.006Z,75794.75
2022-10-30T16:12:36.252Z,75800.94
2022-10-30T16:15:07.966Z,75800.94
2022-10-30T16:17:35.262Z,75802.97
2022-10-30T16:20:04.707Z,75827.66
2022-10-30T16:22:34.167Z,75815.31
2022-10-30T16:25:01.287Z,75805.03
2022-10-30T16:27:29.009Z,75815.31
2022-10-30T16:29:57.013Z,75819.44
2022-10-30T16:32:24.990Z,75823.53
2022-10-30T16:34:54.790Z,75802.97
2022-10-30T16:37:40.774Z,75805.03
2022-10-30T16:40:15.024Z,75823.53
2022-10-30T16:42:45.028Z,75813.25
2022-10-30T16:45:12.091Z,75811.22
2022-10-30T16:47:39.573Z,75827.66
2022-10-30T16:50:06.868Z,75817.38
2022-10-30T16:52:35.555Z,75827.66
2022-10-30T16:55:06.723Z,75850.25
2022-10-30T16:57:36.444Z,75860.53
2022-10-30T17:00:04.134Z,75868.75
2022-10-30T17:02:35.550Z,75868.75
2022-10-30T17:05:10.090Z,75870.81
2022-10-30T17:07:38.105Z,75881.09
2022-10-30T17:10:25.134Z,75889.31
2022-10-30T17:12:52.221Z,75897.53
2022-10-30T17:15:20.966Z,75907.81
2022-10-30T17:18:08.181Z,75905.75
2022-10-30T17:20:35.242Z,75893.41
2022-10-30T17:23:20.792Z,75897.53
2022-10-30T17:25:48.914Z,75895.47
2022-10-30T17:28:29.066Z,75909.84
2022-10-30T17:30:56.788Z,75909.84
2022-10-30T17:33:31.593Z,75899.56
2022-10-30T17:35:58.718Z,75885.19
2022-10-30T17:38:25.763Z,75887.25
2022-10-30T17:40:55.397Z,75876.97
2022-10-30T17:43:23.764Z,75876.97
2022-10-30T17:45:52.498Z,75872.84
2022-10-30T17:48:19.695Z,75856.41
2022-10-30T17:50:46.856Z,75856.41
2022-10-30T17:53:20.963Z,75860.53
2022-10-30T17:55:56.791Z,75839.97
2022-10-30T17:58:24.166Z,75844.09
2022-10-30T18:00:51.451Z,75844.09
2022-10-30T18:03:18.544Z,75835.88
2022-10-30T18:05:46.695Z,75848.19
2022-10-30T18:08:13.832Z,75856.41
2022-10-30T18:10:44.244Z,75850.25
2022-10-30T18:13:13.796Z,75848.19
2022-10-30T18:15:41.403Z,75848.19
2022-10-30T18:18:09.065Z,75848.19
2022-10-30T18:20:36.111Z,75839.97
2022-10-30T18:23:04.218Z,75821.47
2022-10-30T18:25:33.201Z,75827.66
2022-10-30T18:28:00.580Z,75823.53
2022-10-30T18:30:29.128Z,75831.75
2022-10-30T18:32:56.703Z,75839.97
2022-10-30T18:35:27.579Z,75835.88
2022-10-30T18:37:55.593Z,75837.91
2022-10-30T18:40:22.903Z,75835.88
2022-10-30T18:42:50.033Z,75833.81
2022-10-30T18:45:21.497Z,75835.88
2022-10-30T18:47:48.675Z,75823.53
2022-10-30T18:50:16.291Z,75835.88
2022-10-30T18:52:43.547Z,75844.09
2022-10-30T18:55:12.557Z,75833.81
2022-10-30T18:57:41.983Z,75835.88
2022-10-30T19:00:10.215Z,75839.97
2022-10-30T19:02:37.435Z,75848.19
2022-10-30T19:05:21.422Z,75844.09
2022-10-30T19:07:52.672Z,75848.19
2022-10-30T19:10:19.770Z,75846.13
2022-10-30T19:13:10.890Z,75856.41
2022-10-30T19:15:37.139Z,75862.59
2022-10-30T19:18:04.892Z,75860.53
2022-10-30T19:20:50.540Z,75848.19
2022-10-30T19:23:23.017Z,75850.25
2022-10-30T19:25:50.750Z,75839.97
2022-10-30T19:28:18.168Z,75831.75
2022-10-30T19:30:50.140Z,75833.81
2022-10-30T19:33:17.732Z,75829.69
2022-10-30T19:35:45.356Z,75827.66
2022-10-30T19:38:12.679Z,75831.75
2022-10-30T19:40:39.885Z,75815.31
2022-10-30T19:43:06.945Z,75835.88
2022-10-30T19:45:35.165Z,75839.97
2022-10-30T19:48:02.770Z,75833.81
2022-10-30T19:50:31.271Z,75815.31
2022-10-30T19:52:58.990Z,75819.44
2022-10-30T19:55:27.882Z,75811.22
2022-10-30T19:57:55.303Z,75807.09
2022-10-30T20:00:24.479Z,75802.97
2022-10-30T20:02:54.873Z,75805.03
2022-10-30T20:05:22.987Z,75802.97
2022-10-30T20:08:00.297Z,75809.16
2022-10-30T20:10:30.600Z,75809.16
2022-10-30T20:12:58.097Z,75802.97
2022-10-30T20:15:26.323Z,75802.97
2022-10-30T20:17:53.728Z,75802.97
2022-10-30T20:20:22.614Z,75802.97
2022-10-30T20:22:49.931Z,75805.03
2022-10-30T20:25:17.173Z,75800.94
2022-10-30T20:27:44.637Z,75800.94
2022-10-30T20:30:16.524Z,75807.09
2022-10-30T20:32:43.666Z,75811.22
2022-10-30T20:35:11.357Z,75802.97
2022-10-30T20:37:38.556Z,75807.09
2022-10-30T20:40:10.171Z,75815.31
2022-10-30T20:42:37.582Z,75807.09
2022-10-30T20:45:04.991Z,75798.88
2022-10-30T20:47:32.083Z,75805.03
2022-10-30T20:49:59.357Z,75807.09
2022-10-30T20:52:26.446Z,75796.81
2022-10-30T20:54:53.654Z,75786.53
2022-10-30T20:57:20.765Z,75786.53
2022-10-30T20:59:48.682Z,75786.53
2022-10-30T21:02:16.169Z,75792.72
2022-10-30T21:04:43.377Z,75800.94
2022-10-30T21:07:10.468Z,75798.88
2022-10-30T21:09:39.168Z,75790.66
2022-10-30T21:12:07.795Z,75790.66
2022-10-30T21:14:34.879Z,75798.88
2022-10-30T21:17:02.005Z,75802.97
2022-10-30T21:19:29.290Z,75796.81
2022-10-30T21:21:56.433Z,75798.88
2022-10-30T21:24:23.661Z,75794.75
2022-10-30T21:26:51.403Z,75790.66
2022-10-30T21:29:19.051Z,75790.66
2022-10-30T21:31:47.607Z,75798.88
2022-10-30T21:34:15.234Z,75788.59
2022-10-30T21:36:43.602Z,75792.72
2022-10-30T21:39:10.637Z,75786.53
2022-10-30T21:41:37.728Z,75786.53
2022-10-30T21:44:04.920Z,75786.53
2022-10-30T21:46:32.204Z,75798.88
2022-10-30T21:49:06.924Z,75790.66
2022-10-30T21:51:38.556Z,75792.72
2022-10-30T21:54:05.652Z,75798.88
2022-10-30T21:56:33.635Z,75792.72
2022-10-30T21:59:04.598Z,75796.81
2022-10-30T22:01:32.292Z,75798.88
2022-10-30T22:03:59.836Z,75798.88
2022-10-30T22:06:26.907Z,75796.81
2022-10-30T22:08:54.251Z,75805.03
2022-10-30T22:11:22.321Z,75802.97
2022-10-30T22:13:54.790Z,75807.09
2022-10-30T22:16:22.173Z,75811.22
2022-10-30T22:18:49.532Z,75813.25
2022-10-30T22:21:16.733Z,75811.22
2022-10-30T22:23:45.581Z,75811.22
2022-10-30T22:26:14.121Z,75815.31
2022-10-30T22:28:41.751Z,75815.31
2022-10-30T22:31:16.088Z,75823.53
2022-10-30T22:33:45.957Z,75823.53
2022-10-30T22:36:17.537Z,75817.38
2022-10-30T22:38:45.676Z,75823.53
2022-10-30T22:41:14.064Z,75809.16
2022-10-30T22:43:42.010Z,75831.75
2022-10-30T22:46:09.479Z,75823.53
2022-10-30T22:48:36.673Z,75821.47
2022-10-30T22:51:04.573Z,75831.75
2022-10-30T22:53:33.209Z,75839.97
2022-10-30T22:56:00.831Z,75839.97
2022-10-30T22:58:30.876Z,75837.91
2022-10-30T23:01:27.676Z,75831.75
2022-10-30T23:03:55.438Z,75819.44
2022-10-30T23:06:22.927Z,75827.66
2022-10-30T23:08:51.763Z,75819.44
2022-10-30T23:11:19.133Z,75827.66
2022-10-30T23:13:46.223Z,75842.03
2022-10-30T23:16:14.874Z,75844.09
2022-10-30T23:18:42.755Z,75839.97
2022-10-30T23:21:13.968Z,75831.75
2022-10-30T23:23:42.921Z,75844.09
2022-10-30T23:26:11.180Z,75835.88
2022-10-30T23:28:38.271Z,75848.19
2022-10-30T23:31:06.236Z,75856.41
2022-10-30T23:33:33.415Z,75864.63
2022-10-30T23:36:00.924Z,75864.63
2022-10-30T23:38:28.127Z,75868.75
2022-10-30T23:40:55.394Z,75881.09
2022-10-30T23:43:22.584Z,75887.25
2022-10-30T23:45:49.660Z,75885.19
2022-10-30T23:48:16.961Z,75897.53
2022-10-30T23:50:44.451Z,75883.13
2022-10-30T23:53:11.738Z,75885.19
2022-10-30T23:55:38.794Z,75881.09
2022-10-30T23:58:06.029Z,75891.34
